sensor_id;sensor_type;location;lat;lon;timestamp;pressure;altitude;pressure_sealevel;temperature;humidity
6144;BME280;3103;49.492;8.474;2022-08-21T00:00:15;100604.75;;;23.63;40.50
6144;BME280;3103;49.492;8.474;2022-08-21T00:03:06;100608.41;;;23.50;40.59
6144;BME280;3103;49.492;8.474;2022-08-21T00:05:37;100606.31;;;23.47;40.73
6144;BME280;3103;49.492;8.474;2022-08-21T00:08:05;100603.91;;;23.37;40.87
6144;BME280;3103;49.492;8.474;2022-08-21T00:10:32;100607.63;;;23.41;40.75
6144;BME280;3103;49.492;8.474;2022-08-21T00:13:00;100607.16;;;23.39;40.80
6144;BME280;3103;49.492;8.474;2022-08-21T00:15:30;100607.94;;;23.31;41.33
6144;BME280;3103;49.492;8.474;2022-08-21T00:17:57;100603.75;;;23.42;41.00
6144;BME280;3103;49.492;8.474;2022-08-21T00:20:25;100608.25;;;23.47;40.97
6144;BME280;3103;49.492;8.474;2022-08-21T00:22:52;100599.22;;;23.46;40.85
6144;BME280;3103;49.492;8.474;2022-08-21T00:25:21;100603.13;;;23.54;40.54
6144;BME280;3103;49.492;8.474;2022-08-21T00:27:52;100604.22;;;23.44;40.49
6144;BME280;3103;49.492;8.474;2022-08-21T00:30:21;100592.28;;;23.49;40.35
6144;BME280;3103;49.492;8.474;2022-08-21T00:32:50;100596.03;;;23.61;40.50
6144;BME280;3103;49.492;8.474;2022-08-21T00:35:21;100592.63;;;23.56;40.88
6144;BME280;3103;49.492;8.474;2022-08-21T00:37:48;100598.31;;;23.59;40.82
6144;BME280;3103;49.492;8.474;2022-08-21T00:40:18;100594.75;;;23.59;41.13
6144;BME280;3103;49.492;8.474;2022-08-21T00:42:45;100598.31;;;23.59;41.24
6144;BME280;3103;49.492;8.474;2022-08-21T00:45:21;100604.91;;;23.58;41.50
6144;BME280;3103;49.492;8.474;2022-08-21T00:47:49;100594.25;;;23.57;41.34
6144;BME280;3103;49.492;8.474;2022-08-21T00:50:16;100591.50;;;23.48;41.22
6144;BME280;3103;49.492;8.474;2022-08-21T00:52:50;100601.03;;;23.51;40.98
6144;BME280;3103;49.492;8.474;2022-08-21T00:55:20;100603.94;;;23.54;41.00
6144;BME280;3103;49.492;8.474;2022-08-21T00:57:51;100594.22;;;23.48;41.01
6144;BME280;3103;49.492;8.474;2022-08-21T01:00:25;100599.72;;;23.39;41.09
6144;BME280;3103;49.492;8.474;2022-08-21T01:02:59;100604.53;;;23.25;41.27
6144;BME280;3103;49.492;8.474;2022-08-21T01:05:27;100608.38;;;23.16;41.55
6144;BME280;3103;49.492;8.474;2022-08-21T01:07:55;100598.19;;;23.07;41.47
6144;BME280;3103;49.492;8.474;2022-08-21T01:10:24;100599.16;;;23.03;41.52
6144;BME280;3103;49.492;8.474;2022-08-21T01:12:52;100609.47;;;22.97;41.60
6144;BME280;3103;49.492;8.474;2022-08-21T01:15:23;100598.34;;;23.02;41.62
6144;BME280;3103;49.492;8.474;2022-08-21T01:17:51;100603.19;;;22.97;41.77
6144;BME280;3103;49.492;8.474;2022-08-21T01:20:17;100604.81;;;22.98;41.69
6144;BME280;3103;49.492;8.474;2022-08-21T01:22:44;100601.09;;;23.02;41.65
6144;BME280;3103;49.492;8.474;2022-08-21T01:25:14;100599.31;;;22.98;41.91
6144;BME280;3103;49.492;8.474;2022-08-21T01:27:42;100589.81;;;22.95;41.87
6144;BME280;3103;49.492;8.474;2022-08-21T01:30:13;100603.00;;;22.93;42.25
6144;BME280;3103;49.492;8.474;2022-08-21T01:32:41;100599.97;;;23.03;42.11
6144;BME280;3103;49.492;8.474;2022-08-21T01:35:09;100600.28;;;23.02;42.35
6144;BME280;3103;49.492;8.474;2022-08-21T01:37:38;100596.56;;;22.89;42.74
6144;BME280;3103;49.492;8.474;2022-08-21T01:40:07;100593.78;;;22.80;42.94
6144;BME280;3103;49.492;8.474;2022-08-21T01:42:35;100593.16;;;22.84;42.93
6144;BME280;3103;49.492;8.474;2022-08-21T01:45:03;100598.00;;;22.87;42.76
6144;BME280;3103;49.492;8.474;2022-08-21T01:47:30;100596.91;;;22.96;42.92
6144;BME280;3103;49.492;8.474;2022-08-21T01:49:57;100597.88;;;23.00;43.38
6144;BME280;3103;49.492;8.474;2022-08-21T01:52:23;100597.22;;;23.03;43.85
6144;BME280;3103;49.492;8.474;2022-08-21T01:54:50;100595.94;;;23.01;44.09
6144;BME280;3103;49.492;8.474;2022-08-21T01:57:22;100597.41;;;23.07;44.25
6144;BME280;3103;49.492;8.474;2022-08-21T01:59:52;100597.53;;;22.93;44.63
6144;BME280;3103;49.492;8.474;2022-08-21T02:02:19;100586.72;;;22.88;44.71
6144;BME280;3103;49.492;8.474;2022-08-21T02:04:45;100586.56;;;22.93;44.50
6144;BME280;3103;49.492;8.474;2022-08-21T02:07:12;100585.22;;;22.82;44.59
6144;BME280;3103;49.492;8.474;2022-08-21T02:09:39;100589.69;;;22.69;45.15
6144;BME280;3103;49.492;8.474;2022-08-21T02:12:10;100589.88;;;22.73;44.86
6144;BME280;3103;49.492;8.474;2022-08-21T02:14:37;100587.94;;;22.73;44.64
6144;BME280;3103;49.492;8.474;2022-08-21T02:17:05;100588.56;;;22.70;45.20
6144;BME280;3103;49.492;8.474;2022-08-21T02:19:36;100576.31;;;22.68;45.44
6144;BME280;3103;49.492;8.474;2022-08-21T02:22:09;100581.28;;;22.66;45.02
6144;BME280;3103;49.492;8.474;2022-08-21T02:24:38;100576.13;;;22.56;44.69
6144;BME280;3103;49.492;8.474;2022-08-21T02:27:24;100572.88;;;22.54;44.10
6144;BME280;3103;49.492;8.474;2022-08-21T02:29:55;100572.09;;;22.53;43.98
6144;BME280;3103;49.492;8.474;2022-08-21T02:32:22;100573.16;;;22.43;44.07
6144;BME280;3103;49.492;8.474;2022-08-21T02:34:49;100574.63;;;22.49;43.56
6144;BME280;3103;49.492;8.474;2022-08-21T02:37:16;100574.44;;;22.46;43.62
6144;BME280;3103;49.492;8.474;2022-08-21T02:39:43;100577.19;;;22.46;43.49
6144;BME280;3103;49.492;8.474;2022-08-21T02:42:10;100567.69;;;22.43;43.27
6144;BME280;3103;49.492;8.474;2022-08-21T02:44:37;100558.69;;;22.51;43.47
6144;BME280;3103;49.492;8.474;2022-08-21T02:47:04;100571.53;;;22.42;44.23
6144;BME280;3103;49.492;8.474;2022-08-21T02:49:30;100567.28;;;22.28;44.18
6144;BME280;3103;49.492;8.474;2022-08-21T02:51:57;100569.00;;;22.15;42.94
6144;BME280;3103;49.492;8.474;2022-08-21T02:54:24;100572.63;;;22.33;42.68
6144;BME280;3103;49.492;8.474;2022-08-21T02:56:51;100577.47;;;22.36;42.71
6144;BME280;3103;49.492;8.474;2022-08-21T02:59:17;100570.38;;;22.35;42.61
6144;BME280;3103;49.492;8.474;2022-08-21T03:01:44;100570.03;;;22.28;42.45
6144;BME280;3103;49.492;8.474;2022-08-21T03:04:11;100573.56;;;22.28;42.51
6144;BME280;3103;49.492;8.474;2022-08-21T03:06:38;100566.34;;;22.32;42.77
6144;BME280;3103;49.492;8.474;2022-08-21T03:09:04;100561.50;;;22.29;42.75
6144;BME280;3103;49.492;8.474;2022-08-21T03:11:33;100556.38;;;22.36;42.21
6144;BME280;3103;49.492;8.474;2022-08-21T03:13:59;100562.94;;;22.27;42.70
6144;BME280;3103;49.492;8.474;2022-08-21T03:16:26;100557.28;;;22.23;43.00
6144;BME280;3103;49.492;8.474;2022-08-21T03:18:58;100557.16;;;22.28;43.04
6144;BME280;3103;49.492;8.474;2022-08-21T03:21:26;100555.66;;;22.22;42.94
6144;BME280;3103;49.492;8.474;2022-08-21T03:23:52;100565.75;;;22.13;43.18
6144;BME280;3103;49.492;8.474;2022-08-21T03:26:20;100573.97;;;22.13;42.87
6144;BME280;3103;49.492;8.474;2022-08-21T03:28:48;100570.34;;;22.04;42.93
6144;BME280;3103;49.492;8.474;2022-08-21T03:31:15;100565.38;;;22.06;42.97
6144;BME280;3103;49.492;8.474;2022-08-21T03:33:42;100571.03;;;22.09;43.14
6144;BME280;3103;49.492;8.474;2022-08-21T03:36:09;100568.19;;;22.14;42.84
6144;BME280;3103;49.492;8.474;2022-08-21T03:38:37;100569.94;;;22.10;42.78
6144;BME280;3103;49.492;8.474;2022-08-21T03:41:05;100575.41;;;22.10;42.84
6144;BME280;3103;49.492;8.474;2022-08-21T03:43:34;100575.41;;;22.10;42.97
6144;BME280;3103;49.492;8.474;2022-08-21T03:46:02;100577.84;;;22.12;42.75
6144;BME280;3103;49.492;8.474;2022-08-21T03:48:30;100577.84;;;22.12;42.18
6144;BME280;3103;49.492;8.474;2022-08-21T03:50:57;100569.34;;;22.00;42.34
6144;BME280;3103;49.492;8.474;2022-08-21T03:53:24;100574.69;;;22.05;42.48
6144;BME280;3103;49.492;8.474;2022-08-21T03:55:52;100577.25;;;22.01;42.25
6144;BME280;3103;49.492;8.474;2022-08-21T03:58:22;100574.91;;;21.86;42.26
6144;BME280;3103;49.492;8.474;2022-08-21T04:00:52;100581.34;;;21.90;42.61
6144;BME280;3103;49.492;8.474;2022-08-21T04:03:19;100579.56;;;21.85;42.63
6144;BME280;3103;49.492;8.474;2022-08-21T04:05:46;100581.97;;;21.87;42.55
6144;BME280;3103;49.492;8.474;2022-08-21T04:08:14;100588.00;;;21.98;42.53
6144;BME280;3103;49.492;8.474;2022-08-21T04:10:52;100586.16;;;21.84;42.50
6144;BME280;3103;49.492;8.474;2022-08-21T04:13:20;100590.81;;;21.84;42.60
6144;BME280;3103;49.492;8.474;2022-08-21T04:15:47;100591.72;;;21.79;42.68
6144;BME280;3103;49.492;8.474;2022-08-21T04:18:15;100592.75;;;21.83;42.91
6144;BME280;3103;49.492;8.474;2022-08-21T04:20:43;100600.69;;;21.93;42.63
6144;BME280;3103;49.492;8.474;2022-08-21T04:23:17;100598.22;;;21.83;42.87
6144;BME280;3103;49.492;8.474;2022-08-21T04:25:51;100599.81;;;21.84;43.26
6144;BME280;3103;49.492;8.474;2022-08-21T04:28:19;100607.63;;;21.77;44.13
6144;BME280;3103;49.492;8.474;2022-08-21T04:30:46;100605.09;;;21.81;44.64
6144;BME280;3103;49.492;8.474;2022-08-21T04:33:13;100607.53;;;21.82;44.62
6144;BME280;3103;49.492;8.474;2022-08-21T04:35:40;100603.59;;;21.75;45.19
6144;BME280;3103;49.492;8.474;2022-08-21T04:38:08;100606.84;;;21.77;45.47
6144;BME280;3103;49.492;8.474;2022-08-21T04:40:36;100610.00;;;21.70;46.09
6144;BME280;3103;49.492;8.474;2022-08-21T04:43:08;100614.34;;;21.71;45.78
6144;BME280;3103;49.492;8.474;2022-08-21T04:45:41;100623.50;;;21.53;46.43
6144;BME280;3103;49.492;8.474;2022-08-21T04:48:11;100621.78;;;21.57;46.19
6144;BME280;3103;49.492;8.474;2022-08-21T04:50:48;100624.63;;;21.52;46.15
6144;BME280;3103;49.492;8.474;2022-08-21T04:53:26;100624.84;;;21.55;46.21
6144;BME280;3103;49.492;8.474;2022-08-21T04:55:56;100624.59;;;21.66;45.81
6144;BME280;3103;49.492;8.474;2022-08-21T04:58:25;100620.78;;;21.53;46.35
6144;BME280;3103;49.492;8.474;2022-08-21T05:00:56;100620.69;;;21.58;46.26
6144;BME280;3103;49.492;8.474;2022-08-21T05:03:24;100618.13;;;21.61;45.87
6144;BME280;3103;49.492;8.474;2022-08-21T05:05:51;100614.28;;;21.62;45.64
6144;BME280;3103;49.492;8.474;2022-08-21T05:08:19;100622.91;;;21.56;45.80
6144;BME280;3103;49.492;8.474;2022-08-21T05:10:47;100620.38;;;21.59;45.71
6144;BME280;3103;49.492;8.474;2022-08-21T05:13:15;100626.50;;;21.65;46.02
6144;BME280;3103;49.492;8.474;2022-08-21T05:15:42;100629.81;;;21.76;46.00
6144;BME280;3103;49.492;8.474;2022-08-21T05:18:09;100629.03;;;21.75;46.06
6144;BME280;3103;49.492;8.474;2022-08-21T05:20:35;100634.31;;;21.72;46.16
6144;BME280;3103;49.492;8.474;2022-08-21T05:23:08;100634.97;;;21.77;45.78
6144;BME280;3103;49.492;8.474;2022-08-21T05:25:36;100632.78;;;21.66;46.03
6144;BME280;3103;49.492;8.474;2022-08-21T05:28:04;100641.84;;;21.52;46.23
6144;BME280;3103;49.492;8.474;2022-08-21T05:30:32;100643.97;;;21.55;46.15
6144;BME280;3103;49.492;8.474;2022-08-21T05:33:01;100637.94;;;21.67;45.88
6144;BME280;3103;49.492;8.474;2022-08-21T05:35:28;100649.75;;;21.54;46.43
6144;BME280;3103;49.492;8.474;2022-08-21T05:37:56;100645.34;;;21.67;46.53
6144;BME280;3103;49.492;8.474;2022-08-21T05:40:23;100644.75;;;21.70;46.38
6144;BME280;3103;49.492;8.474;2022-08-21T05:42:51;100645.25;;;21.72;46.32
6144;BME280;3103;49.492;8.474;2022-08-21T05:45:22;100647.03;;;21.76;46.28
6144;BME280;3103;49.492;8.474;2022-08-21T05:48:22;100642.47;;;21.85;46.20
6144;BME280;3103;49.492;8.474;2022-08-21T05:50:51;100647.81;;;21.90;45.85
6144;BME280;3103;49.492;8.474;2022-08-21T05:53:20;100633.63;;;21.88;45.52
6144;BME280;3103;49.492;8.474;2022-08-21T05:55:47;100639.47;;;21.96;45.54
6144;BME280;3103;49.492;8.474;2022-08-21T05:58:16;100643.19;;;21.77;46.04
6144;BME280;3103;49.492;8.474;2022-08-21T06:00:45;100636.69;;;21.87;45.97
6144;BME280;3103;49.492;8.474;2022-08-21T06:03:28;100642.31;;;21.68;46.57
6144;BME280;3103;49.492;8.474;2022-08-21T06:05:56;100645.69;;;21.87;45.89
6144;BME280;3103;49.492;8.474;2022-08-21T06:08:24;100642.09;;;21.64;45.79
6144;BME280;3103;49.492;8.474;2022-08-21T06:10:52;100645.50;;;21.48;46.64
6144;BME280;3103;49.492;8.474;2022-08-21T06:13:20;100640.94;;;21.79;45.68
6144;BME280;3103;49.492;8.474;2022-08-21T06:15:47;100646.22;;;21.76;45.40
6144;BME280;3103;49.492;8.474;2022-08-21T06:18:14;100641.44;;;21.81;45.18
6144;BME280;3103;49.492;8.474;2022-08-21T06:20:41;100647.38;;;21.97;45.25
6144;BME280;3103;49.492;8.474;2022-08-21T06:23:08;100647.75;;;22.04;44.97
6144;BME280;3103;49.492;8.474;2022-08-21T06:25:35;100648.78;;;21.94;44.97
6144;BME280;3103;49.492;8.474;2022-08-21T06:28:10;100646.56;;;21.97;44.35
6144;BME280;3103;49.492;8.474;2022-08-21T06:30:38;100647.88;;;21.99;43.76
6144;BME280;3103;49.492;8.474;2022-08-21T06:33:07;100649.50;;;22.00;44.15
6144;BME280;3103;49.492;8.474;2022-08-21T06:35:34;100647.16;;;22.07;43.97
6144;BME280;3103;49.492;8.474;2022-08-21T06:38:01;100654.69;;;22.24;43.38
6144;BME280;3103;49.492;8.474;2022-08-21T06:40:29;100647.47;;;22.59;42.14
6144;BME280;3103;49.492;8.474;2022-08-21T06:43:10;100651.91;;;22.77;41.58
6144;BME280;3103;49.492;8.474;2022-08-21T06:45:41;100650.88;;;22.34;42.74
6144;BME280;3103;49.492;8.474;2022-08-21T06:48:08;100651.41;;;22.44;42.38
6144;BME280;3103;49.492;8.474;2022-08-21T06:50:35;100653.69;;;22.51;42.11
6144;BME280;3103;49.492;8.474;2022-08-21T06:53:06;100657.84;;;22.71;41.79
6144;BME280;3103;49.492;8.474;2022-08-21T06:55:33;100662.38;;;22.75;41.61
6144;BME280;3103;49.492;8.474;2022-08-21T06:58:00;100657.50;;;22.95;41.57
6144;BME280;3103;49.492;8.474;2022-08-21T07:00:27;100654.66;;;23.17;41.09
6144;BME280;3103;49.492;8.474;2022-08-21T07:02:54;100659.00;;;23.18;41.09
6144;BME280;3103;49.492;8.474;2022-08-21T07:05:21;100657.28;;;23.31;40.62
6144;BME280;3103;49.492;8.474;2022-08-21T07:07:48;100654.72;;;23.43;40.18
6144;BME280;3103;49.492;8.474;2022-08-21T07:10:14;100643.72;;;23.34;39.99
6144;BME280;3103;49.492;8.474;2022-08-21T07:12:49;100651.19;;;23.51;39.83
6144;BME280;3103;49.492;8.474;2022-08-21T07:15:27;100643.78;;;23.60;39.77
6144;BME280;3103;49.492;8.474;2022-08-21T07:17:55;100644.59;;;23.87;39.40
6144;BME280;3103;49.492;8.474;2022-08-21T07:20:23;100640.41;;;23.72;39.62
6144;BME280;3103;49.492;8.474;2022-08-21T07:22:50;100644.44;;;23.75;39.65
6144;BME280;3103;49.492;8.474;2022-08-21T07:25:17;100636.38;;;23.78;39.50
6144;BME280;3103;49.492;8.474;2022-08-21T07:27:44;100635.91;;;23.85;39.19
6144;BME280;3103;49.492;8.474;2022-08-21T07:30:11;100633.28;;;24.14;38.98
6144;BME280;3103;49.492;8.474;2022-08-21T07:32:37;100637.78;;;24.19;38.61
6144;BME280;3103;49.492;8.474;2022-08-21T07:35:04;100636.34;;;24.04;38.58
6144;BME280;3103;49.492;8.474;2022-08-21T07:37:31;100637.31;;;24.25;38.49
6144;BME280;3103;49.492;8.474;2022-08-21T07:39:58;100631.81;;;24.25;38.75
6144;BME280;3103;49.492;8.474;2022-08-21T07:42:24;100633.56;;;24.47;38.46
6144;BME280;3103;49.492;8.474;2022-08-21T07:44:54;100632.03;;;24.67;38.29
6144;BME280;3103;49.492;8.474;2022-08-21T07:47:22;100635.13;;;24.66;38.09
6144;BME280;3103;49.492;8.474;2022-08-21T07:50:09;100628.28;;;24.80;37.77
6144;BME280;3103;49.492;8.474;2022-08-21T07:52:38;100635.53;;;24.85;37.93
6144;BME280;3103;49.492;8.474;2022-08-21T07:55:06;100628.81;;;24.65;38.61
6144;BME280;3103;49.492;8.474;2022-08-21T07:57:34;100627.56;;;24.54;38.91
6144;BME280;3103;49.492;8.474;2022-08-21T08:00:02;100633.06;;;24.54;38.86
6144;BME280;3103;49.492;8.474;2022-08-21T08:02:38;100632.38;;;24.66;38.40
6144;BME280;3103;49.492;8.474;2022-08-21T08:05:09;100646.03;;;24.83;38.25
6144;BME280;3103;49.492;8.474;2022-08-21T08:07:38;100641.13;;;24.97;38.10
6144;BME280;3103;49.492;8.474;2022-08-21T08:10:06;100637.84;;;25.12;37.92
6144;BME280;3103;49.492;8.474;2022-08-21T08:12:39;100644.00;;;25.09;37.66
6144;BME280;3103;49.492;8.474;2022-08-21T08:15:11;100637.84;;;25.12;37.85
6144;BME280;3103;49.492;8.474;2022-08-21T08:17:38;100642.66;;;25.15;38.06
6144;BME280;3103;49.492;8.474;2022-08-21T08:20:07;100634.94;;;25.38;37.58
6144;BME280;3103;49.492;8.474;2022-08-21T08:22:36;100634.50;;;25.28;37.51
6144;BME280;3103;49.492;8.474;2022-08-21T08:25:05;100627.50;;;25.09;37.98
6144;BME280;3103;49.492;8.474;2022-08-21T08:27:37;100624.31;;;24.99;37.83
6144;BME280;3103;49.492;8.474;2022-08-21T08:30:05;100626.97;;;25.16;37.65
6144;BME280;3103;49.492;8.474;2022-08-21T08:32:32;100622.28;;;25.16;37.65
6144;BME280;3103;49.492;8.474;2022-08-21T08:34:59;100618.13;;;25.10;37.86
6144;BME280;3103;49.492;8.474;2022-08-21T08:37:26;100613.44;;;25.32;37.97
6144;BME280;3103;49.492;8.474;2022-08-21T08:40:01;100612.66;;;25.31;37.59
6144;BME280;3103;49.492;8.474;2022-08-21T08:42:33;100603.16;;;25.50;37.75
6144;BME280;3103;49.492;8.474;2022-08-21T08:45:13;100603.16;;;25.50;38.08
6144;BME280;3103;49.492;8.474;2022-08-21T08:47:45;100605.44;;;25.68;37.88
6144;BME280;3103;49.492;8.474;2022-08-21T08:50:25;100600.97;;;25.97;37.30
6144;BME280;3103;49.492;8.474;2022-08-21T08:53:00;100604.28;;;25.90;37.30
6144;BME280;3103;49.492;8.474;2022-08-21T08:55:38;100587.59;;;26.08;37.50
6144;BME280;3103;49.492;8.474;2022-08-21T08:58:06;100590.59;;;26.15;37.38
6144;BME280;3103;49.492;8.474;2022-08-21T09:00:33;100589.28;;;26.45;36.56
6144;BME280;3103;49.492;8.474;2022-08-21T09:03:02;100586.78;;;26.40;36.92
6144;BME280;3103;49.492;8.474;2022-08-21T09:11:01;100574.75;;;26.12;37.77
6144;BME280;3103;49.492;8.474;2022-08-21T09:16:47;100575.66;;;26.16;37.38
6144;BME280;3103;49.492;8.474;2022-08-21T09:19:27;100569.50;;;26.19;37.80
6144;BME280;3103;49.492;8.474;2022-08-21T09:22:23;100575.47;;;26.21;37.36
6144;BME280;3103;49.492;8.474;2022-08-21T09:25:08;100568.22;;;26.16;36.86
6144;BME280;3103;49.492;8.474;2022-08-21T09:27:37;100567.22;;;26.21;36.41
6144;BME280;3103;49.492;8.474;2022-08-21T09:30:07;100562.03;;;26.19;35.78
6144;BME280;3103;49.492;8.474;2022-08-21T09:32:37;100568.19;;;26.37;35.89
6144;BME280;3103;49.492;8.474;2022-08-21T09:35:09;100566.09;;;26.34;35.84
6144;BME280;3103;49.492;8.474;2022-08-21T09:38:00;100566.91;;;26.59;35.19
6144;BME280;3103;49.492;8.474;2022-08-21T09:45:31;100566.59;;;26.48;34.45
6144;BME280;3103;49.492;8.474;2022-08-21T09:48:20;100559.78;;;26.33;34.42
6144;BME280;3103;49.492;8.474;2022-08-21T09:50:53;100563.31;;;26.22;33.62
6144;BME280;3103;49.492;8.474;2022-08-21T09:53:27;100564.91;;;26.23;33.89
6144;BME280;3103;49.492;8.474;2022-08-21T09:56:14;100557.63;;;26.39;33.50
6144;BME280;3103;49.492;8.474;2022-08-21T09:59:01;100563.50;;;26.50;32.66
6144;BME280;3103;49.492;8.474;2022-08-21T10:01:27;100572.31;;;26.55;32.53
6144;BME280;3103;49.492;8.474;2022-08-21T10:04:07;100565.56;;;26.65;33.32
6144;BME280;3103;49.492;8.474;2022-08-21T10:06:35;100566.25;;;26.62;32.91
6144;BME280;3103;49.492;8.474;2022-08-21T10:09:08;100555.22;;;26.62;33.23
6144;BME280;3103;49.492;8.474;2022-08-21T10:11:52;100557.66;;;26.63;32.56
6144;BME280;3103;49.492;8.474;2022-08-21T10:14:35;100562.09;;;26.44;33.80
6144;BME280;3103;49.492;8.474;2022-08-21T10:17:17;100559.13;;;26.61;33.20
6144;BME280;3103;49.492;8.474;2022-08-21T10:20:10;100546.16;;;26.37;33.63
6144;BME280;3103;49.492;8.474;2022-08-21T10:23:03;100544.78;;;26.55;33.05
6144;BME280;3103;49.492;8.474;2022-08-21T10:28:07;100538.09;;;26.93;32.84
6144;BME280;3103;49.492;8.474;2022-08-21T10:31:19;100536.59;;;26.96;32.63
6144;BME280;3103;49.492;8.474;2022-08-21T10:36:33;100532.16;;;26.79;32.76
6144;BME280;3103;49.492;8.474;2022-08-21T10:39:18;100536.25;;;26.73;32.67
6144;BME280;3103;49.492;8.474;2022-08-21T10:47:49;100528.47;;;26.75;33.43
6144;BME280;3103;49.492;8.474;2022-08-21T10:50:31;100523.88;;;26.79;32.65
6144;BME280;3103;49.492;8.474;2022-08-21T10:58:26;100526.88;;;26.37;32.26
6144;BME280;3103;49.492;8.474;2022-08-21T11:01:11;100515.50;;;26.39;32.11
6144;BME280;3103;49.492;8.474;2022-08-21T11:03:43;100512.41;;;26.52;32.61
6144;BME280;3103;49.492;8.474;2022-08-21T11:06:15;100518.78;;;26.32;32.12
6144;BME280;3103;49.492;8.474;2022-08-21T11:08:45;100511.50;;;26.36;32.26
6144;BME280;3103;49.492;8.474;2022-08-21T11:11:24;100509.41;;;26.57;32.49
6144;BME280;3103;49.492;8.474;2022-08-21T11:14:28;100499.63;;;26.84;31.38
6144;BME280;3103;49.492;8.474;2022-08-21T11:17:05;100499.28;;;26.74;31.55
6144;BME280;3103;49.492;8.474;2022-08-21T11:19:45;100505.94;;;26.73;31.00
6144;BME280;3103;49.492;8.474;2022-08-21T11:22:33;100501.38;;;26.77;31.42
6144;BME280;3103;49.492;8.474;2022-08-21T11:25:16;100495.25;;;26.83;31.57
6144;BME280;3103;49.492;8.474;2022-08-21T11:27:50;100500.06;;;26.86;31.01
6144;BME280;3103;49.492;8.474;2022-08-21T11:30:18;100496.28;;;26.91;30.25
6144;BME280;3103;49.492;8.474;2022-08-21T11:33:01;100491.59;;;26.79;30.90
6144;BME280;3103;49.492;8.474;2022-08-21T11:35:43;100479.97;;;26.86;30.91
6144;BME280;3103;49.492;8.474;2022-08-21T11:38:27;100482.72;;;26.98;31.26
6144;BME280;3103;49.492;8.474;2022-08-21T11:43:42;100481.84;;;26.82;31.06
6144;BME280;3103;49.492;8.474;2022-08-21T11:46:24;100477.50;;;26.69;31.02
6144;BME280;3103;49.492;8.474;2022-08-21T11:51:36;100468.16;;;26.73;31.08
6144;BME280;3103;49.492;8.474;2022-08-21T11:54:44;100472.41;;;26.83;31.02
6144;BME280;3103;49.492;8.474;2022-08-21T11:58:11;100467.00;;;26.86;30.94
6144;BME280;3103;49.492;8.474;2022-08-21T12:00:31;100462.09;;;26.80;31.47
6144;BME280;3103;49.492;8.474;2022-08-21T12:03:12;100451.22;;;26.99;30.72
6144;BME280;3103;49.492;8.474;2022-08-21T12:05:43;100451.47;;;27.06;30.54
6144;BME280;3103;49.492;8.474;2022-08-21T12:08:26;100451.03;;;27.04;30.59
6144;BME280;3103;49.492;8.474;2022-08-21T12:16:41;100458.13;;;27.17;30.23
6144;BME280;3103;49.492;8.474;2022-08-21T12:19:12;100454.34;;;27.10;30.51
6144;BME280;3103;49.492;8.474;2022-08-21T12:24:32;100452.84;;;27.00;29.80
6144;BME280;3103;49.492;8.474;2022-08-21T12:27:40;100453.47;;;26.81;30.33
6144;BME280;3103;49.492;8.474;2022-08-21T12:30:34;100456.34;;;26.73;30.36
6144;BME280;3103;49.492;8.474;2022-08-21T12:33:18;100450.72;;;26.69;30.81
6144;BME280;3103;49.492;8.474;2022-08-21T12:35:47;100451.06;;;26.80;30.73
6144;BME280;3103;49.492;8.474;2022-08-21T12:38:23;100442.53;;;26.85;30.32
6144;BME280;3103;49.492;8.474;2022-08-21T12:41:19;100449.63;;;26.98;30.36
6144;BME280;3103;49.492;8.474;2022-08-21T12:43:50;100437.94;;;27.01;30.90
6144;BME280;3103;49.492;8.474;2022-08-21T12:46:21;100429.47;;;26.82;32.16
6144;BME280;3103;49.492;8.474;2022-08-21T12:48:52;100422.03;;;27.10;29.65
6144;BME280;3103;49.492;8.474;2022-08-21T12:51:32;100428.50;;;27.30;28.56
6144;BME280;3103;49.492;8.474;2022-08-21T12:54:00;100432.50;;;27.17;29.18
6144;BME280;3103;49.492;8.474;2022-08-21T12:56:30;100427.88;;;27.21;29.25
6144;BME280;3103;49.492;8.474;2022-08-21T12:59:06;100429.88;;;27.36;29.08
6144;BME280;3103;49.492;8.474;2022-08-21T13:01:54;100433.16;;;27.42;29.12
6144;BME280;3103;49.492;8.474;2022-08-21T13:04:27;100424.66;;;27.19;31.21
6144;BME280;3103;49.492;8.474;2022-08-21T13:06:59;100428.97;;;27.32;29.41
6144;BME280;3103;49.492;8.474;2022-08-21T13:09:28;100424.84;;;27.26;29.28
6144;BME280;3103;49.492;8.474;2022-08-21T13:11:56;100426.16;;;27.16;31.12
6144;BME280;3103;49.492;8.474;2022-08-21T13:14:40;100419.34;;;27.26;29.25
6144;BME280;3103;49.492;8.474;2022-08-21T13:17:16;100412.94;;;27.22;30.25
6144;BME280;3103;49.492;8.474;2022-08-21T13:20:00;100411.28;;;27.49;29.12
6144;BME280;3103;49.492;8.474;2022-08-21T13:22:28;100413.84;;;27.42;28.78
6144;BME280;3103;49.492;8.474;2022-08-21T13:25:01;100414.06;;;27.49;28.83
6144;BME280;3103;49.492;8.474;2022-08-21T13:27:33;100402.75;;;27.54;29.55
6144;BME280;3103;49.492;8.474;2022-08-21T13:30:18;100403.78;;;27.77;29.31
6144;BME280;3103;49.492;8.474;2022-08-21T13:32:50;100397.91;;;27.79;29.57
6144;BME280;3103;49.492;8.474;2022-08-21T13:35:21;100402.97;;;27.93;29.32
6144;BME280;3103;49.492;8.474;2022-08-21T13:37:50;100406.53;;;28.09;28.53
6144;BME280;3103;49.492;8.474;2022-08-21T13:40:38;100407.66;;;28.24;28.26
6144;BME280;3103;49.492;8.474;2022-08-21T13:43:12;100400.16;;;28.40;28.58
6144;BME280;3103;49.492;8.474;2022-08-21T13:45:48;100401.56;;;28.50;28.15
6144;BME280;3103;49.492;8.474;2022-08-21T13:48:15;100402.97;;;28.59;27.85
6144;BME280;3103;49.492;8.474;2022-08-21T13:50:42;100398.88;;;28.53;27.90
6144;BME280;3103;49.492;8.474;2022-08-21T13:56:26;100397.97;;;28.84;27.39
6144;BME280;3103;49.492;8.474;2022-08-21T13:58:55;100391.19;;;28.82;27.00
6144;BME280;3103;49.492;8.474;2022-08-21T14:01:26;100395.34;;;28.72;27.33
6144;BME280;3103;49.492;8.474;2022-08-21T14:04:20;100387.88;;;28.92;27.02
6144;BME280;3103;49.492;8.474;2022-08-21T14:06:45;100392.59;;;29.11;26.85
6144;BME280;3103;49.492;8.474;2022-08-21T14:09:39;100391.38;;;29.08;26.70
6144;BME280;3103;49.492;8.474;2022-08-21T14:12:19;100383.28;;;29.19;26.93
6144;BME280;3103;49.492;8.474;2022-08-21T14:14:50;100379.25;;;29.36;26.53
6144;BME280;3103;49.492;8.474;2022-08-21T14:17:33;100381.00;;;29.44;27.23
6144;BME280;3103;49.492;8.474;2022-08-21T14:20:01;100387.31;;;29.44;27.15
6144;BME280;3103;49.492;8.474;2022-08-21T14:22:42;100381.56;;;29.53;27.07